Terminal Aerodrome Forecast
Issued by NWS

Home | Current Version | Previous Version | Graphics & Text | Print | Product List | Glossary On
Versions: 1 2 3 4 5 6 7 8 9 10 11 12 13 14 15
000
FTUS42 KMHX 270134 AAA
TAFISO
TAF AMD
KISO 270134Z 2702/2724 20010G15KT P6SM SCT050 BKN070
     FM270215 12010G15KT P6SM VCTS SCT040CB
     FM270500 12005KT P6SM BKN050 BKN250
     FM271000 17005KT P6SM VCTS BKN050CB BKN090
     FM271500 18009KT P6SM VCTS BKN050CB BKN090
      AMD LTD TO CLD VIS AND WIND=

USA.gov is the U.S. government's official web portal to all federal, state and local government web resources and services.